Comox Airport
CYQQ : now visible

Airfield :











YOU CAN JOIN US ON...

 
LOGIN :

Register | Disclaimer

   EN    FR    IT 

 









Legend :    VFR   Marginal VFR   IFR   Intensive IFR   Very Intensive IFR
Visi :
Ceiling :
>= 8 km
>= 3000ft
5 to 8 km
1000 to 3000 ft
1500m to 5 km
500 to 1000 ft
800 to 1500m
200 to 500 ft
< 800m
< 200 ft
Symbols :   Thunderstorms  Fog  Heavy snow  Heavy precipitations  Wind > 20 kt






- Airport Elevation : 84 ft
- IATA code : YQQ


CYQQ - Comox

CURRENT METAR :
  • 261200Z 16004KT 15SM FEW050 BKN060 OVC070 13/12 A2973 RMK SC1SC5AC2 SLP067

EXPIRED METARs :
  • 261139Z CCA 23003KT 12SM -SHRA BKN060 OVC070 13/12 A2974 RMK SC5AC3 SLP071
  • 261118Z 19004KT 15SM BKN060 OVC080 13/12 A2973 RMK SC5AC3 SLP068
  • 261100Z CCA 19002KT 12SM -RA SCT060 OVC080 13/12 A2973 RMK SC3AC5 SLP068
  • 261018Z 08003KT 10SM -RA FEW050 BKN070 OVC080 14/12 A2973 RMK SC2AC5AC1 SLP069
  • 261000Z 06004KT 15SM FEW050 SCT070 OVC080 13/12 A2974 RMK SC2AC2AC4 SLP070

TAF TAF CYQQ
Valid from the 26 at 12:00 until the 27 at 12:00 UTC


261139Z 2612/2712 16010KT P6SM BKN060 OVC080
TEMPO 2612/2615 P6SM -SHRA OVC050
FM261500 14015G25KT P6SM SCT015 OVC025
TEMPO 2615/2622 6SM -SHRA BKN010 OVC020
FM262200 14025G35KT 6SM -RA BR SCT012 OVC025
TEMPO 2622/2704 3SM SHRA BR OVC012
FM270400 14015G25KT P6SM OVC030
TEMPO 2704/2712 BKN025
BECMG 2707/2709 17012KT RMK NXT FCST BY 261800Z
CZVR FIR / North America



MET'MAP, your aeronautical weather chart ! - Copyright ORBIFLY December 2007 - Disclaimer

ORBIFLY MET'MAP TEAM :

Programming & Development : Alexandra Zaïnal
Concept & original design : Baudouin d'Aumeries
Assistance for programming : Marc-Olivier Méhu
Technical & hardware support : Manuel Goepfert

Contact : metmap@orbifly.com




SOURCES & CREDITS :

   NOAA       Earth
Advisory